Saturday, August 18, 2018, 8:26 PM EDT
Back to Local

KMDT, Harrisburg International Airport

Location: Middletown, PA, United States Lat: 40.2
Local Time: 8:26 PM EDT ( 0:26 GMT) Lon: -76.767
Time Zone: US/Eastern Elev: 308 ft

Show me the last for .
Show Decoded

2018-08-18 19:56 METAR KMDT 182356Z 00000KT 10SM SCT036 BKN090 BKN250 25/21 A2983 RMK AO2 SLP100
                 60000 T02500206 10289 20250 53014 =
2018-08-18 19:33 METAR KMDT 182333Z 04003KT 10SM SCT031 BKN040 BKN047 26/21 A2983 RMK AO2
                 T02560206 =
2018-08-18 18:56 METAR KMDT 182256Z 03008KT 10SM BKN026 OVC040 26/21 A2982 RMK AO2 SLP095
                 T02560206 =
2018-08-18 17:56 METAR KMDT 182156Z 28005KT 10SM FEW070 SCT140 BKN180 BKN250 27/21 A2980 RMK AO2
                 SLP090 T02670211 =
2018-08-18 16:56 METAR KMDT 182056Z 28006KT 10SM FEW040 SCT140 BKN250 27/21 A2979 RMK AO2 SLP086
                 60000 T02670206 58014 =
2018-08-18 15:56 METAR KMDT 181956Z 27005KT 10SM SCT085 BKN180 BKN250 27/20 A2981 RMK AO2 SLP093
                 T02720200 =
2018-08-18 14:56 METAR KMDT 181856Z 27006KT 10SM FEW034 BKN100 BKN120 BKN200 28/21 A2982 RMK AO2
                 RAE1759 SLP094 P0000 T02780211 =
2018-08-18 13:56 METAR KMDT 181756Z 25010KT 10SM -RA FEW050 SCT070 BKN085 28/21 A2983 RMK AO2
                 RAB43 SLP101 P0000 60000 T02780211 10289 20228 56016 =
2018-08-18 12:56 METAR KMDT 181656Z 27004KT 10SM SCT036 SCT045 BKN050 28/21 A2985 RMK AO2 SLP105
                 T02780211 =
2018-08-18 11:56 METAR KMDT 181556Z 29005KT 10SM FEW024 SCT070 BKN150 28/22 A2986 RMK AO2 SLP111
                 T02780222 =
2018-08-18 10:56 METAR KMDT 181456Z 29005KT 10SM FEW017 SCT080 BKN150 27/23 A2988 RMK AO2 SLP116
                 T02670228 57006 =
2018-08-18 09:56 METAR KMDT 181356Z 00000KT 10SM BKN150 24/22 A2989 RMK AO2 SLP118 T02390217 =
2018-08-18 08:56 METAR KMDT 181256Z 00000KT 10SM SCT070 OVC150 23/22 A2989 RMK AO2 SLP122
                 T02330217 =
2018-08-18 08:09 METAR KMDT 181209Z 00000KT 8SM FEW005 SCT080 BKN150 23/22 A2990 RMK AO2
                 T02280217 =
2018-08-18 07:56 METAR KMDT 181156Z 00000KT 9SM SCT080 BKN150 23/22 A2990 RMK AO2 SLP124 60000
                 70006 T02330217 10233 20222 53000 =
2018-08-18 06:56 METAR KMDT 181056Z 00000KT 5SM BR SCT090 OVC150 22/22 A2990 RMK AO2 SLP124
                 T02220217 =
2018-08-18 05:56 METAR KMDT 180956Z 00000KT 6SM BR FEW060 BKN080 OVC220 22/22 A2990 RMK AO2
                 SLP122 T02220217 =
2018-08-18 04:56 METAR KMDT 180856Z 00000KT 6SM BR SCT100 OVC130 22/22 A2990 RMK AO2 RAE37 SLP122
                 VCSH E-SE P0000 60000 T02220217 58011 =
2018-08-18 03:56 METAR KMDT 180756Z 00000KT 9SM -RA FEW100 OVC130 23/22 A2991 RMK AO2 RAE04B31
                 SLP128 P0000 T02280217 =
2018-08-18 02:56 METAR KMDT 180656Z 00000KT 6SM -RA BR FEW070 SCT110 OVC150 22/22 A2993 RMK AO2
                 RAB13 SLP131 P0000 T02220217 =
2018-08-18 01:56 METAR KMDT 180556Z 00000KT 8SM SCT055 OVC150 22/22 A2993 RMK AO2 SLP133 60000
                 T02220217 10239 20222 56005 =
2018-08-18 00:56 METAR KMDT 180456Z 00000KT 10SM FEW080 BKN230 23/21 A2994 RMK AO2 SLP136
                 T02280211 403220222 =
2018-08-17 23:56 METAR KMDT 180356Z 00000KT 10SM FEW070 BKN150 OVC170 23/22 A2993 RMK AO2 SLP134
                 T02280217 =
2018-08-17 22:56 METAR KMDT 180256Z 00000KT 6SM BR SCT075 BKN140 BKN220 23/22 A2995 RMK AO2
                 SLP139 VCSH NW 60000 T02280217 50001 =
2018-08-17 21:56 METAR KMDT 180156Z VRB03KT 10SM FEW060 SCT150 OVC220 23/22 A2995 RMK AO2 SLP140
                 T02330217 =
2018-08-17 20:56 METAR KMDT 180056Z 00000KT 9SM SCT038 SCT070 OVC150 23/22 A2995 RMK AO2 RAE26
                 SLP139 P0000 T02330222 =

Support USWX by starting your Amazon purchase here.